createdAt,value
2023-03-26T00:01:15.856Z,1.10
2023-03-26T00:03:47.223Z,1.23
2023-03-26T00:06:25.479Z,1.20
2023-03-26T00:09:01.602Z,1.50
2023-03-26T00:11:29.749Z,1.00
2023-03-26T00:13:57.876Z,1.77
2023-03-26T00:16:27.827Z,1.17
2023-03-26T00:18:54.997Z,1.23
2023-03-26T00:21:28.407Z,1.40
2023-03-26T00:23:58.528Z,1.30
2023-03-26T00:26:27.138Z,1.90
2023-03-26T00:28:54.643Z,1.77
2023-03-26T00:31:21.915Z,1.67
2023-03-26T00:33:55.475Z,1.03
2023-03-26T00:36:25.592Z,1.00
2023-03-26T00:38:54.001Z,1.33
2023-03-26T00:41:24.935Z,1.40
2023-03-26T00:43:57.149Z,1.10
2023-03-26T00:46:25.641Z,1.80
2023-03-26T00:48:52.783Z,1.60
2023-03-26T00:51:21.242Z,1.30
2023-03-26T00:53:49.780Z,1.03
2023-03-26T00:56:17.476Z,1.43
2023-03-26T00:58:44.857Z,1.60
2023-03-26T01:01:18.747Z,1.13
2023-03-26T01:04:00.887Z,1.47
2023-03-26T01:06:36.201Z,1.33
2023-03-26T01:09:18.762Z,1.33
2023-03-26T01:11:47.513Z,1.60
2023-03-26T01:14:23.554Z,1.70
2023-03-26T01:16:55.361Z,1.60
2023-03-26T01:19:38.060Z,1.57
2023-03-26T01:22:11.066Z,1.37
2023-03-26T01:24:39.525Z,1.23
2023-03-26T01:27:21.325Z,2.27
2023-03-26T01:30:01.373Z,2.00
2023-03-26T01:32:44.281Z,2.37
2023-03-26T01:35:30.559Z,1.60
2023-03-26T01:38:10.982Z,1.57
2023-03-26T01:40:49.624Z,0.90
2023-03-26T01:43:21.435Z,1.57
2023-03-26T01:45:50.093Z,1.67
2023-03-26T01:48:17.273Z,1.17
2023-03-26T01:50:44.803Z,1.20
2023-03-26T01:53:13.844Z,1.80
2023-03-26T01:55:49.617Z,2.20
2023-03-26T01:58:35.615Z,1.63
2023-03-26T02:01:19.579Z,1.20
2023-03-26T02:04:06.520Z,1.30
2023-03-26T02:06:38.137Z,1.50
2023-03-26T02:09:09.096Z,1.30
2023-03-26T02:11:38.525Z,1.20
2023-03-26T02:14:07.059Z,2.00
2023-03-26T02:16:34.293Z,1.33
2023-03-26T02:19:01.004Z,1.60
2023-03-26T02:21:28.769Z,1.60
2023-03-26T02:24:03.606Z,1.40
2023-03-26T02:26:37.616Z,1.83
2023-03-26T02:29:12.448Z,1.47
2023-03-26T02:31:41.537Z,1.60
2023-03-26T02:34:08.154Z,2.33
2023-03-26T02:36:37.500Z,2.10
2023-03-26T02:39:05.302Z,1.83
2023-03-26T02:41:35.502Z,1.53
2023-03-26T02:44:06.925Z,1.60
2023-03-26T02:46:54.012Z,2.13
2023-03-26T02:49:41.060Z,1.60
2023-03-26T02:52:07.994Z,1.50
2023-03-26T02:54:36.093Z,1.70
2023-03-26T02:57:08.408Z,1.80
2023-03-26T02:59:54.513Z,1.60
2023-03-26T03:02:52.719Z,1.60
2023-03-26T03:05:20.143Z,1.20
2023-03-26T03:07:58.196Z,2.40
2023-03-26T03:10:28.173Z,1.77
2023-03-26T03:13:08.904Z,1.80
2023-03-26T03:15:36.739Z,1.50
2023-03-26T03:18:03.704Z,1.80
2023-03-26T03:20:35.224Z,1.77
2023-03-26T03:23:02.119Z,1.90
2023-03-26T03:25:30.154Z,2.03
2023-03-26T03:27:57.094Z,1.63
2023-03-26T03:30:24.040Z,2.00
2023-03-26T03:33:13.240Z,1.63
2023-03-26T03:35:41.721Z,1.90
2023-03-26T03:38:08.542Z,1.90
2023-03-26T03:40:44.678Z,1.60
2023-03-26T03:43:11.377Z,1.57
2023-03-26T03:45:47.836Z,2.20
2023-03-26T03:48:38.173Z,1.67
2023-03-26T03:51:06.412Z,2.00
2023-03-26T03:54:03.049Z,1.93
2023-03-26T03:56:52.236Z,1.33
2023-03-26T03:59:38.668Z,2.23
2023-03-26T04:02:14.419Z,1.60
2023-03-26T04:04:50.227Z,1.50
2023-03-26T04:07:20.064Z,2.20
2023-03-26T04:10:05.930Z,2.67
2023-03-26T04:13:07.953Z,1.80
2023-03-26T04:15:57.960Z,2.10
2023-03-26T04:18:26.319Z,1.97
2023-03-26T04:20:55.622Z,1.93
2023-03-26T04:23:26.668Z,1.87
2023-03-26T04:26:04.277Z,2.53
2023-03-26T04:29:00.028Z,2.47
2023-03-26T04:31:30.545Z,1.63
2023-03-26T04:34:15.370Z,2.90
2023-03-26T04:36:54.503Z,1.83
2023-03-26T04:39:29.277Z,2.03
2023-03-26T04:42:15.376Z,2.03
2023-03-26T04:44:56.280Z,2.70
2023-03-26T04:47:23.543Z,2.10
2023-03-26T04:49:50.685Z,1.93
2023-03-26T04:52:18.183Z,2.10
2023-03-26T04:54:57.406Z,2.47
2023-03-26T04:57:33.906Z,2.30
2023-03-26T05:00:16.661Z,1.73
2023-03-26T05:02:50.445Z,2.47
2023-03-26T05:05:18.315Z,2.93
2023-03-26T05:07:45.223Z,2.03
2023-03-26T05:10:16.536Z,2.73
2023-03-26T05:12:49.392Z,2.90
2023-03-26T05:15:25.410Z,1.97
2023-03-26T05:18:32.283Z,1.60
2023-03-26T05:21:00.235Z,1.70
2023-03-26T05:23:28.098Z,1.67
2023-03-26T05:26:10.160Z,1.87
2023-03-26T05:28:37.078Z,2.07
2023-03-26T05:31:17.991Z,2.20
2023-03-26T05:33:48.614Z,2.67
2023-03-26T05:36:17.278Z,3.33
2023-03-26T05:38:49.557Z,2.10
2023-03-26T05:41:36.477Z,2.07
2023-03-26T05:44:03.208Z,2.43
2023-03-26T05:46:31.089Z,2.47
2023-03-26T05:48:58.184Z,3.80
2023-03-26T05:51:25.341Z,3.63
2023-03-26T05:54:01.690Z,3.23
2023-03-26T05:57:03.704Z,2.20
2023-03-26T05:59:50.554Z,3.67
2023-03-26T06:02:36.110Z,2.77
2023-03-26T06:05:20.741Z,1.93
2023-03-26T06:08:07.800Z,2.27
2023-03-26T06:10:39.363Z,3.00
2023-03-26T06:13:06.344Z,2.37
2023-03-26T06:15:35.885Z,2.00
2023-03-26T06:18:14.669Z,2.70
2023-03-26T06:21:08.061Z,2.50
2023-03-26T06:23:44.162Z,2.90
2023-03-26T06:26:26.985Z,3.47
2023-03-26T06:29:20.160Z,3.23
2023-03-26T06:32:18.514Z,2.30
2023-03-26T06:34:51.561Z,2.30
2023-03-26T06:37:20.934Z,13.30
2023-03-26T06:39:56.882Z,9.67
2023-03-26T06:43:08.737Z,6.30
2023-03-26T06:45:53.611Z,2.80
2023-03-26T06:48:29.323Z,2.40
2023-03-26T06:51:13.517Z,2.60
2023-03-26T06:53:58.767Z,2.53
2023-03-26T06:56:43.336Z,2.30
2023-03-26T06:59:28.316Z,2.60
2023-03-26T07:02:13.588Z,1.80
2023-03-26T07:04:59.153Z,3.40
2023-03-26T07:07:46.872Z,2.33
2023-03-26T07:10:32.947Z,1.90
2023-03-26T07:13:18.374Z,3.17
2023-03-26T07:16:23.700Z,3.63
2023-03-26T07:19:13.356Z,3.77
2023-03-26T07:21:41.810Z,2.47
2023-03-26T07:24:44.397Z,3.57
2023-03-26T07:27:36.978Z,3.27
2023-03-26T07:30:54.901Z,2.77
2023-03-26T07:33:56.900Z,3.13
2023-03-26T07:36:53.898Z,2.50
2023-03-26T07:40:08.133Z,3.33
2023-03-26T07:43:20.098Z,2.37
2023-03-26T07:46:14.226Z,2.70
2023-03-26T07:49:07.592Z,1.90
2023-03-26T07:51:57.600Z,2.07
2023-03-26T07:54:44.526Z,2.13
2023-03-26T07:57:45.493Z,3.10
2023-03-26T08:00:30.016Z,2.70
2023-03-26T08:03:09.913Z,2.43
2023-03-26T08:06:24.151Z,3.20
2023-03-26T08:09:28.339Z,2.83
2023-03-26T08:12:57.993Z,1.90
2023-03-26T08:15:41.644Z,4.37
2023-03-26T08:18:27.503Z,5.00
2023-03-26T08:21:00.858Z,2.50
2023-03-26T08:24:11.033Z,2.80
2023-03-26T08:26:57.385Z,2.00
2023-03-26T08:29:36.367Z,2.50
2023-03-26T08:32:05.996Z,2.30
2023-03-26T08:34:32.699Z,2.40
2023-03-26T08:36:59.374Z,2.30
2023-03-26T08:39:26.017Z,2.70
2023-03-26T08:42:11.536Z,1.90
2023-03-26T08:44:47.719Z,2.10
2023-03-26T08:47:27.469Z,2.00
2023-03-26T08:50:10.567Z,3.20
2023-03-26T08:53:06.115Z,3.97
2023-03-26T08:55:58.128Z,2.50
2023-03-26T08:58:58.934Z,4.27
2023-03-26T09:01:50.100Z,2.67
2023-03-26T09:04:47.882Z,2.37
2023-03-26T09:07:29.841Z,1.97
2023-03-26T09:09:56.483Z,2.60
2023-03-26T09:12:44.649Z,2.67
2023-03-26T09:15:47.034Z,2.03
2023-03-26T09:18:22.679Z,2.10
2023-03-26T09:21:34.424Z,2.43
2023-03-26T09:24:10.894Z,2.27
2023-03-26T09:26:46.396Z,1.57
2023-03-26T09:29:32.912Z,2.13
2023-03-26T09:32:29.211Z,2.90
2023-03-26T09:35:13.117Z,5.43
2023-03-26T09:38:11.764Z,3.03
2023-03-26T09:41:18.422Z,2.30
2023-03-26T09:44:14.637Z,16.80
2023-03-26T09:47:20.105Z,4.33
2023-03-26T09:50:01.830Z,19.63
2023-03-26T09:52:50.412Z,21.10
2023-03-26T09:55:32.437Z,25.60
2023-03-26T09:58:04.948Z,4.33
2023-03-26T10:00:46.261Z,15.90
2023-03-26T10:03:43.841Z,8.80
2023-03-26T10:06:14.253Z,4.90
2023-03-26T10:09:09.672Z,11.57
2023-03-26T10:12:24.608Z,2.40
2023-03-26T10:15:09.874Z,2.50
2023-03-26T10:17:49.020Z,2.27
2023-03-26T10:20:46.287Z,4.43
2023-03-26T10:23:34.106Z,9.47
2023-03-26T10:26:29.160Z,3.20
2023-03-26T10:29:17.825Z,3.27
2023-03-26T10:32:12.468Z,3.03
2023-03-26T10:34:48.230Z,3.13
2023-03-26T10:37:45.870Z,3.20
2023-03-26T10:40:55.148Z,3.10
2023-03-26T10:43:33.706Z,2.50
2023-03-26T10:46:13.827Z,2.33
2023-03-26T10:49:01.076Z,2.83
2023-03-26T10:51:51.400Z,2.30
2023-03-26T10:54:57.069Z,2.50
2023-03-26T10:57:37.060Z,2.70
2023-03-26T11:00:16.783Z,2.53
2023-03-26T11:03:22.597Z,1.73
2023-03-26T11:05:54.120Z,3.47
2023-03-26T11:08:31.902Z,2.10
2023-03-26T11:11:16.984Z,3.00
2023-03-26T11:13:48.301Z,1.93
2023-03-26T11:16:39.366Z,3.17
2023-03-26T11:19:16.764Z,2.33
2023-03-26T11:21:52.802Z,1.77
2023-03-26T11:24:37.501Z,2.67
2023-03-26T11:27:15.344Z,2.47
2023-03-26T11:30:02.024Z,1.67
2023-03-26T11:32:42.188Z,1.57
2023-03-26T11:35:41.042Z,1.83
2023-03-26T11:38:15.859Z,1.90
2023-03-26T11:40:48.958Z,1.87
2023-03-26T11:43:30.051Z,1.90
2023-03-26T11:45:56.922Z,2.03
2023-03-26T11:48:30.571Z,2.83
2023-03-26T11:51:18.504Z,2.00
2023-03-26T11:53:48.788Z,2.50
2023-03-26T11:56:31.068Z,2.63
2023-03-26T11:59:05.809Z,2.97
2023-03-26T12:01:50.417Z,1.90
2023-03-26T12:04:29.407Z,2.10
2023-03-26T12:07:07.708Z,2.23
2023-03-26T12:09:34.568Z,2.20
2023-03-26T12:12:04.286Z,1.93
2023-03-26T12:14:34.727Z,1.80
2023-03-26T12:17:01.660Z,2.43
2023-03-26T12:19:36.216Z,2.07
2023-03-26T12:22:02.978Z,2.47
2023-03-26T12:24:32.945Z,1.77
2023-03-26T12:27:02.421Z,2.13
2023-03-26T12:29:34.663Z,2.50
2023-03-26T12:32:14.224Z,2.30
2023-03-26T12:34:41.605Z,2.50
2023-03-26T12:37:38.714Z,1.80
2023-03-26T12:40:30.664Z,2.50
2023-03-26T12:44:46.166Z,2.80
2023-03-26T12:47:54.025Z,2.40
2023-03-26T12:48:38.218Z,2.10
2023-03-26T12:51:11.124Z,2.50
2023-03-26T12:53:56.429Z,1.90
2023-03-26T12:56:36.993Z,2.37
2023-03-26T12:59:34.362Z,1.63
2023-03-26T13:02:21.724Z,1.70
2023-03-26T13:05:06.124Z,1.73
2023-03-26T13:08:01.460Z,1.53
2023-03-26T13:10:41.172Z,1.50
2023-03-26T13:13:38.351Z,1.40
2023-03-26T13:16:52.056Z,2.30
2023-03-26T13:19:40.916Z,1.33
2023-03-26T13:22:31.068Z,1.53
2023-03-26T13:25:23.033Z,1.37
2023-03-26T13:28:04.690Z,1.63
2023-03-26T13:30:39.722Z,1.00
2023-03-26T13:33:31.776Z,1.57
2023-03-26T13:36:29.921Z,1.23
2023-03-26T13:39:10.801Z,1.60
2023-03-26T13:41:50.027Z,1.20
2023-03-26T13:44:19.650Z,1.50
2023-03-26T13:46:51.970Z,2.03
2023-03-26T13:49:37.230Z,2.13
2023-03-26T13:52:37.813Z,1.63
2023-03-26T13:55:23.319Z,1.50
2023-03-26T13:58:24.132Z,1.70
2023-03-26T14:01:21.786Z,1.30
2023-03-26T14:04:10.542Z,1.40
2023-03-26T14:06:57.484Z,1.60
2023-03-26T14:09:54.743Z,1.80
2023-03-26T14:12:22.065Z,20.10
2023-03-26T14:15:09.170Z,3.40
2023-03-26T14:17:41.596Z,1.63
2023-03-26T14:20:17.575Z,1.80
2023-03-26T14:23:15.300Z,2.10
2023-03-26T14:26:01.174Z,1.27
2023-03-26T14:29:06.156Z,1.57
2023-03-26T14:31:43.152Z,1.33
2023-03-26T14:34:16.104Z,1.70
2023-03-26T14:37:27.763Z,2.10
2023-03-26T14:40:21.413Z,2.30
2023-03-26T14:43:24.850Z,1.70
2023-03-26T14:46:26.675Z,2.20
2023-03-26T14:49:11.744Z,1.80
2023-03-26T14:52:20.701Z,1.87
2023-03-26T14:54:53.139Z,2.20
2023-03-26T14:57:22.788Z,1.70
2023-03-26T15:00:27.089Z,1.53
2023-03-26T15:03:12.624Z,1.97
2023-03-26T15:05:42.479Z,2.57
2023-03-26T15:08:33.614Z,2.63
2023-03-26T15:11:20.995Z,1.90
2023-03-26T15:13:53.447Z,6.60
2023-03-26T15:16:40.052Z,6.67
2023-03-26T15:19:34.226Z,2.40
2023-03-26T15:22:12.688Z,2.40
2023-03-26T15:24:48.525Z,3.30
2023-03-26T15:27:50.562Z,3.37
2023-03-26T15:30:51.253Z,2.30
2023-03-26T15:33:49.648Z,1.53
2023-03-26T15:36:38.250Z,1.70
2023-03-26T15:39:26.194Z,1.83
2023-03-26T15:42:08.094Z,2.00
2023-03-26T15:44:57.611Z,2.53
2023-03-26T15:47:48.821Z,2.87
2023-03-26T15:50:22.514Z,1.93
2023-03-26T15:53:18.578Z,2.23
2023-03-26T15:56:16.041Z,2.13
2023-03-26T15:58:44.146Z,1.60
2023-03-26T16:01:45.051Z,1.63
2023-03-26T16:04:29.654Z,1.50
2023-03-26T16:07:03.511Z,2.53
2023-03-26T16:09:56.109Z,1.93
2023-03-26T16:12:32.715Z,3.27
2023-03-26T16:15:05.966Z,3.23
2023-03-26T16:18:16.916Z,2.17
2023-03-26T16:21:05.081Z,2.47
2023-03-26T16:23:47.925Z,2.40
2023-03-26T16:26:37.417Z,2.40
2023-03-26T16:29:25.767Z,2.27
2023-03-26T16:32:12.602Z,1.80
2023-03-26T16:34:45.691Z,1.50
2023-03-26T16:37:52.161Z,1.53
2023-03-26T16:40:22.646Z,1.87
2023-03-26T16:43:17.409Z,1.80
2023-03-26T16:46:08.371Z,1.40
2023-03-26T16:49:00.228Z,2.00
2023-03-26T16:51:53.652Z,1.70
2023-03-26T16:54:24.596Z,1.27
2023-03-26T16:57:22.678Z,1.80
2023-03-26T17:00:08.653Z,1.30
2023-03-26T17:02:48.011Z,1.60
2023-03-26T17:05:34.233Z,1.17
2023-03-26T17:08:36.908Z,1.10
2023-03-26T17:11:22.196Z,1.20
2023-03-26T17:14:11.045Z,1.30
2023-03-26T17:16:49.250Z,9.40
2023-03-26T17:19:34.207Z,12.93
2023-03-26T17:29:54.513Z,2.60
2023-03-26T17:32:56.167Z,1.70
2023-03-26T17:35:44.414Z,2.07
2023-03-26T17:38:17.785Z,2.30
2023-03-26T17:40:48.666Z,3.57
2023-03-26T17:43:47.816Z,3.50
2023-03-26T17:46:22.832Z,3.50
2023-03-26T17:48:59.607Z,3.73
2023-03-26T17:51:39.162Z,4.50
2023-03-26T17:54:46.255Z,6.10
2023-03-26T17:57:30.688Z,8.73
2023-03-26T17:59:59.762Z,8.10
2023-03-26T18:02:43.367Z,5.83
2023-03-26T18:05:13.156Z,5.50
2023-03-26T18:08:13.003Z,6.30
2023-03-26T18:11:06.033Z,7.00
2023-03-26T18:14:00.037Z,6.30
2023-03-26T18:16:36.141Z,6.73
2023-03-26T18:19:17.635Z,7.23
2023-03-26T18:21:50.211Z,6.70
2023-03-26T18:24:32.328Z,7.57
2023-03-26T18:27:06.990Z,6.10
2023-03-26T18:29:35.513Z,6.40
2023-03-26T18:32:14.125Z,5.93
2023-03-26T18:34:52.562Z,7.63
2023-03-26T18:37:23.550Z,9.87
2023-03-26T18:40:02.189Z,10.07
2023-03-26T18:42:31.607Z,10.40
2023-03-26T18:45:34.224Z,10.47
2023-03-26T18:48:04.867Z,8.57
2023-03-26T18:50:38.823Z,8.70
2023-03-26T18:53:07.336Z,9.67
2023-03-26T18:55:41.724Z,9.57
2023-03-26T18:58:21.735Z,8.97
2023-03-26T19:00:49.976Z,9.60
2023-03-26T19:03:22.263Z,10.43
2023-03-26T19:05:51.516Z,11.00
2023-03-26T19:08:20.083Z,9.83
2023-03-26T19:10:51.806Z,11.57
2023-03-26T19:13:21.604Z,10.50
2023-03-26T19:15:59.126Z,10.47
2023-03-26T19:18:36.317Z,10.17
2023-03-26T19:21:07.520Z,9.57
2023-03-26T19:23:41.215Z,9.83
2023-03-26T19:26:11.278Z,10.20
2023-03-26T19:28:49.081Z,9.23
2023-03-26T19:31:16.028Z,6.40
2023-03-26T19:33:44.132Z,8.27
2023-03-26T19:36:14.326Z,7.73
2023-03-26T19:38:52.687Z,4.87
2023-03-26T19:41:36.908Z,4.67
2023-03-26T19:44:16.310Z,5.53
2023-03-26T19:46:52.855Z,4.17
2023-03-26T19:49:47.741Z,4.73
2023-03-26T19:52:20.038Z,6.30
2023-03-26T19:54:59.408Z,2.70
2023-03-26T19:57:32.155Z,3.90
2023-03-26T19:59:59.841Z,3.90
2023-03-26T20:02:27.699Z,3.07
2023-03-26T20:04:54.483Z,3.60
2023-03-26T20:07:35.620Z,2.27
2023-03-26T20:10:05.537Z,1.90
2023-03-26T20:12:32.888Z,2.07
2023-03-26T20:15:00.790Z,2.40
2023-03-26T20:17:30.874Z,3.70
2023-03-26T20:19:57.731Z,3.50
2023-03-26T20:22:24.548Z,1.60
2023-03-26T20:24:51.644Z,3.60
2023-03-26T20:27:19.233Z,1.83
2023-03-26T20:29:46.574Z,1.50
2023-03-26T20:32:23.678Z,1.90
2023-03-26T20:34:51.744Z,2.80
2023-03-26T20:37:18.503Z,1.60
2023-03-26T20:39:45.773Z,1.53
2023-03-26T20:42:15.430Z,1.60
2023-03-26T20:44:42.831Z,2.80
2023-03-26T20:47:12.759Z,1.60
2023-03-26T20:49:40.199Z,2.03
2023-03-26T20:52:06.945Z,2.30
2023-03-26T20:54:33.690Z,2.30
2023-03-26T20:57:00.484Z,1.50
2023-03-26T20:59:27.958Z,1.60
2023-03-26T21:01:56.721Z,1.97
2023-03-26T21:04:24.723Z,2.80
2023-03-26T21:06:53.365Z,1.40
2023-03-26T21:09:24.100Z,1.50
2023-03-26T21:11:54.794Z,1.90
2023-03-26T21:14:46.389Z,1.20
2023-03-26T21:17:16.286Z,1.30
2023-03-26T21:19:44.114Z,2.80
2023-03-26T21:22:38.973Z,1.90
2023-03-26T21:25:18.596Z,2.10
2023-03-26T21:27:57.472Z,1.30
2023-03-26T21:30:24.497Z,1.47
2023-03-26T21:32:52.012Z,1.20
2023-03-26T21:35:19.293Z,1.03
2023-03-26T21:37:48.732Z,1.60
2023-03-26T21:40:18.293Z,1.00
2023-03-26T21:42:54.839Z,1.00
2023-03-26T21:45:22.229Z,1.00
2023-03-26T21:47:49.530Z,1.13
2023-03-26T21:50:38.539Z,1.17
2023-03-26T21:53:05.599Z,0.90
2023-03-26T21:55:43.373Z,1.33
2023-03-26T21:58:36.070Z,0.80
2023-03-26T22:01:08.969Z,1.20
2023-03-26T22:04:02.137Z,1.10
2023-03-26T22:06:47.305Z,1.00
2023-03-26T22:09:16.664Z,0.80
2023-03-26T22:11:45.605Z,1.13
2023-03-26T22:14:13.364Z,1.00
2023-03-26T22:16:41.594Z,0.90
2023-03-26T22:19:08.847Z,1.03
2023-03-26T22:21:35.946Z,1.00
2023-03-26T22:24:04.192Z,1.20
2023-03-26T22:26:31.440Z,0.90
2023-03-26T22:28:58.572Z,1.03
2023-03-26T22:31:26.498Z,1.00
2023-03-26T22:33:54.756Z,1.97
2023-03-26T22:36:41.773Z,1.17
2023-03-26T22:39:08.425Z,1.30
2023-03-26T22:41:35.061Z,1.20
2023-03-26T22:44:16.756Z,1.40
2023-03-26T22:46:49.092Z,1.20
2023-03-26T22:49:16.539Z,1.60
2023-03-26T22:51:43.739Z,1.83
2023-03-26T22:54:10.534Z,1.43
2023-03-26T22:56:37.739Z,1.10
2023-03-26T22:59:04.617Z,1.50
2023-03-26T23:01:31.365Z,1.67
2023-03-26T23:03:58.359Z,1.40
2023-03-26T23:06:25.235Z,1.50
2023-03-26T23:08:52.015Z,1.60
2023-03-26T23:11:20.532Z,1.23
2023-03-26T23:13:48.024Z,1.90
2023-03-26T23:16:16.272Z,1.90
2023-03-26T23:18:44.086Z,1.50
2023-03-26T23:21:21.569Z,1.30
2023-03-26T23:23:50.441Z,1.40
2023-03-26T23:26:17.138Z,1.33
2023-03-26T23:28:44.107Z,1.60
2023-03-26T23:31:14.547Z,1.30
2023-03-26T23:33:46.184Z,1.83
2023-03-26T23:36:17.689Z,1.30
2023-03-26T23:38:48.991Z,2.00
2023-03-26T23:41:21.707Z,1.40
2023-03-26T23:43:53.629Z,1.30
2023-03-26T23:46:30.955Z,1.20
2023-03-26T23:49:03.414Z,1.43
2023-03-26T23:51:31.318Z,1.53
2023-03-26T23:53:58.471Z,1.53
2023-03-26T23:56:27.667Z,1.30
2023-03-26T23:58:55.261Z,1.80
